Pagrindinis puslapis
METAR-TAF:

METAR-TAF

Oro uostai :

Mo i Rana, Norvegija

platuma: 66-22N, ilguma: 014-18E, Aukštis: 7 m

Dabartinis oras

Ataskaita buvo paskelbta 54 minutes, ne 10:50 UTC
Vėjas 5 kt iš Rytų/Pietryčių
Temperatūra 13°C
Drėgmė 72%
Slėgis 1018 hPa
Matomumas 10 km arba daugiau
Mažai debesys ne aukštis 1800 ft
Išsisklaidę debesys ne aukštis 2500 ft
Su prošvaistėmis ne aukštis 4500 ft

METAR: ENRA 221050Z 12005KT 9999 FEW018 SCT025 BKN045 13/08 Q1018

Laikas: 13:44 (11:44 UTC)

Prognozė

Ataskaita buvo paskelbta 3 valandos ir 44 minutes, ne 08:00 UTC
Prognozė galioja nuo 22 metu 09 UTC su 22 metu 18 UTC
Vėjas 8 kt nuo kintamojo kryptimis
Matomumas 10 km arba daugiau
Mažai debesys ne aukštis 1500 ft
Išsisklaidę debesys ne aukštis 4000 ft

TAF: ENRA 220800Z 2209/2218 VRB08KT 9999 FEW015 SCT040

Orai ataskaitas ir orų prognozės (METAR, TAF).

turimą stotys yra geltonos ir raudonos taškus žemėlapyje.

Perkelti pele per norėdami pamatyti stoties vardą.

Tada spustelėkite, norėdami matyti oro stebėjimo ir prognozės.

Norėdami pakeisti žemėlapį: spustelėkite ant žalios mygtukų su juodo kryžiaus žemyn,; žalią mygtuką su brūkšneliu, jei norite nutolinti; arba žalių rodyklių gretimoms žemėlapius.


METAR-TAF: